Billings Logan International Airport
KBIL : now visible

Airfield :











YOU CAN JOIN US ON...

 
LOGIN :

Register | Disclaimer

   EN    FR    IT 

 









Legend :    VFR   Marginal VFR   IFR   Intensive IFR   Very Intensive IFR
Visi :
Ceiling :
>= 8 km
>= 3000ft
5 to 8 km
1000 to 3000 ft
1500m to 5 km
500 to 1000 ft
800 to 1500m
200 to 500 ft
< 800m
< 200 ft
Symbols :   Thunderstorms  Fog  Heavy snow  Heavy precipitations  Wind > 20 kt






- Airport Elevation : 3652 ft
- IATA code : BIL


KBIL - Billings Logan International

CURRENT METAR :
  • 011453Z 24019G25KT 10SM FEW090 FEW220 M04/M12 A2999 RMK AO2 SLP200 ACSL DSNT SE-S T10441122 53004

EXPIRED METARs :
  • 011353Z 22012KT 10SM FEW100 FEW220 M07/M13 A2998 RMK AO2 SLP199 T10671133
  • 011253Z 23014KT 10SM FEW100 FEW220 M06/M13 A2997 RMK AO2 SLP197 T10611133

TAF KBIL
Valid from the 01 at 12:00 until the 02 at 12:00 UTC


011125Z 0112/0212 24016G23KT P6SM FEW100 SCT200
FM020400 24011KT P6SM BKN100
FM020900 VRB06KT P6SM FEW040 BKN080
KZLC FIR / North America



MET'MAP, your aeronautical weather chart ! - Copyright ORBIFLY December 2007 - Disclaimer

ORBIFLY MET'MAP TEAM :

Programming & Development : Alexandra Zaïnal
Original concept : Baudouin d'Aumeries
Technical & hardware support : Manuel Goepfert
Assistance : Marc-Olivier Méhu




SOURCES & CREDITS :

   NOAA       Earth
Advisory